createdAt,value
2022-09-24T00:01:39.382Z,3.47
2022-09-24T00:04:14.350Z,3.43
2022-09-24T00:06:45.461Z,4.03
2022-09-24T00:09:16.087Z,3.50
2022-09-24T00:11:45.573Z,3.90
2022-09-24T00:14:13.352Z,3.67
2022-09-24T00:16:43.746Z,3.50
2022-09-24T00:19:13.319Z,3.30
2022-09-24T00:21:41.862Z,3.17
2022-09-24T00:24:35.934Z,3.63
2022-09-24T00:27:06.989Z,2.93
2022-09-24T00:29:35.372Z,3.43
2022-09-24T00:32:05.337Z,3.87
2022-09-24T00:34:32.319Z,3.37
2022-09-24T00:36:59.537Z,3.03
2022-09-24T00:39:26.689Z,3.07
2022-09-24T00:41:53.794Z,3.60
2022-09-24T00:44:45.371Z,3.27
2022-09-24T00:47:32.095Z,2.83
2022-09-24T00:50:32.044Z,3.07
2022-09-24T00:53:13.912Z,3.70
2022-09-24T00:55:45.938Z,3.23
2022-09-24T00:58:14.397Z,3.47
2022-09-24T01:00:45.695Z,3.30
2022-09-24T01:03:23.131Z,3.40
2022-09-24T01:05:50.744Z,3.30
2022-09-24T01:08:21.019Z,3.47
2022-09-24T01:11:36.755Z,3.30
2022-09-24T01:15:01.162Z,3.90
2022-09-24T01:18:04.366Z,4.10
2022-09-24T01:21:09.178Z,3.30
2022-09-24T01:24:18.356Z,3.30
2022-09-24T01:27:20.048Z,3.77
2022-09-24T01:30:12.346Z,3.70
2022-09-24T01:33:00.888Z,3.10
2022-09-24T01:35:53.642Z,3.60
2022-09-24T01:38:34.473Z,3.00
2022-09-24T01:41:03.443Z,2.90
2022-09-24T01:43:32.846Z,3.20
2022-09-24T01:46:06.437Z,3.43
2022-09-24T01:48:37.270Z,3.30
2022-09-24T01:51:27.798Z,2.73
2022-09-24T01:54:18.039Z,3.23
2022-09-24T01:57:31.968Z,2.70
2022-09-24T02:00:15.019Z,2.87
2022-09-24T02:02:58.177Z,3.23
2022-09-24T02:06:03.859Z,3.37
2022-09-24T02:08:39.022Z,3.17
2022-09-24T02:11:14.690Z,3.47
2022-09-24T02:14:14.428Z,3.53
2022-09-24T02:16:48.960Z,3.37
2022-09-24T02:19:25.109Z,3.33
2022-09-24T02:21:52.756Z,3.17
2022-09-24T02:24:57.167Z,3.13
2022-09-24T02:27:29.294Z,3.30
2022-09-24T02:29:58.880Z,3.57
2022-09-24T02:32:31.105Z,3.70
2022-09-24T02:35:03.728Z,2.73
2022-09-24T02:37:40.558Z,3.30
2022-09-24T02:40:11.914Z,2.93
2022-09-24T02:42:41.042Z,3.67
2022-09-24T02:45:09.040Z,3.07
2022-09-24T02:47:36.926Z,3.17
2022-09-24T02:50:04.665Z,3.23
2022-09-24T02:52:31.669Z,3.43
2022-09-24T02:54:58.635Z,3.60
2022-09-24T02:57:25.649Z,3.40
2022-09-24T02:59:52.592Z,3.90
2022-09-24T03:02:19.553Z,3.97
2022-09-24T03:04:47.128Z,4.00
2022-09-24T03:07:15.024Z,4.17
2022-09-24T03:09:42.005Z,3.70
2022-09-24T03:12:09.542Z,3.70
2022-09-24T03:14:36.483Z,3.70
2022-09-24T03:17:04.080Z,3.63
2022-09-24T03:19:31.027Z,3.67
2022-09-24T03:21:58.012Z,3.83
2022-09-24T03:24:24.939Z,4.50
2022-09-24T03:26:51.927Z,3.77
2022-09-24T03:29:38.922Z,3.73
2022-09-24T03:32:05.915Z,3.10
2022-09-24T03:34:32.849Z,3.23
2022-09-24T03:36:59.800Z,4.37
2022-09-24T03:39:26.731Z,3.83
2022-09-24T03:41:53.698Z,3.60
2022-09-24T03:44:20.751Z,3.70
2022-09-24T03:46:48.203Z,3.80
2022-09-24T03:49:15.299Z,4.17
2022-09-24T03:51:42.261Z,4.73
2022-09-24T03:54:09.287Z,3.83
2022-09-24T03:56:36.272Z,3.73
2022-09-24T03:59:03.487Z,4.73
2022-09-24T04:01:33.167Z,3.90
2022-09-24T04:04:00.393Z,4.47
2022-09-24T04:06:27.355Z,4.80
2022-09-24T04:08:54.664Z,3.53
2022-09-24T04:11:22.697Z,3.50
2022-09-24T04:13:50.108Z,5.30
2022-09-24T04:16:17.972Z,3.93
2022-09-24T04:18:47.967Z,4.90
2022-09-24T04:21:15.207Z,4.77
2022-09-24T04:23:42.467Z,3.70
2022-09-24T04:26:09.563Z,3.27
2022-09-24T04:28:36.546Z,4.10
2022-09-24T04:31:04.017Z,3.20
2022-09-24T04:33:31.014Z,3.27
2022-09-24T04:35:58.035Z,5.00
2022-09-24T04:38:25.051Z,3.57
2022-09-24T04:40:52.052Z,3.90
2022-09-24T04:43:19.341Z,3.53
2022-09-24T04:45:46.779Z,3.77
2022-09-24T04:48:14.808Z,5.13
2022-09-24T04:50:45.727Z,4.43
2022-09-24T04:53:14.299Z,3.80
2022-09-24T04:55:41.888Z,4.20
2022-09-24T04:58:09.966Z,4.13
2022-09-24T05:00:37.284Z,3.97
2022-09-24T05:03:04.773Z,4.50
2022-09-24T05:05:33.933Z,3.50
2022-09-24T05:08:01.872Z,3.83
2022-09-24T05:10:31.599Z,4.43
2022-09-24T05:12:59.346Z,5.07
2022-09-24T05:15:26.761Z,3.97
2022-09-24T05:17:53.719Z,3.90
2022-09-24T05:20:20.886Z,5.23
2022-09-24T05:22:50.554Z,3.37
2022-09-24T05:25:21.168Z,5.23
2022-09-24T05:27:54.862Z,4.10
2022-09-24T05:30:25.550Z,5.13
2022-09-24T05:32:53.041Z,5.70
2022-09-24T05:35:24.507Z,4.20
2022-09-24T05:37:53.732Z,4.40
2022-09-24T05:40:40.346Z,4.20
2022-09-24T05:43:07.526Z,5.50
2022-09-24T05:45:34.463Z,4.30
2022-09-24T05:48:01.671Z,3.70
2022-09-24T05:50:28.753Z,4.10
2022-09-24T05:52:56.078Z,4.43
2022-09-24T05:55:23.096Z,4.30
2022-09-24T05:57:50.121Z,5.57
2022-09-24T06:00:17.149Z,5.07
2022-09-24T06:02:44.268Z,4.70
2022-09-24T06:05:12.618Z,5.30
2022-09-24T06:07:39.902Z,3.80
2022-09-24T06:10:07.649Z,4.67
2022-09-24T06:12:34.943Z,4.60
2022-09-24T06:15:02.849Z,3.67
2022-09-24T06:17:31.172Z,3.70
2022-09-24T06:19:58.128Z,3.97
2022-09-24T06:22:28.643Z,4.60
2022-09-24T06:24:55.970Z,4.63
2022-09-24T06:27:23.076Z,4.90
2022-09-24T06:29:50.142Z,4.87
2022-09-24T06:32:18.169Z,5.03
2022-09-24T06:34:45.421Z,4.33
2022-09-24T06:37:12.365Z,4.67
2022-09-24T06:39:39.356Z,4.63
2022-09-24T06:42:07.091Z,4.47
2022-09-24T06:44:35.092Z,4.60
2022-09-24T06:47:02.307Z,4.20
2022-09-24T06:49:33.781Z,4.70
2022-09-24T06:52:02.499Z,4.47
2022-09-24T06:54:29.469Z,4.67
2022-09-24T06:56:56.401Z,5.30
2022-09-24T06:59:23.362Z,4.80
2022-09-24T07:01:50.406Z,4.00
2022-09-24T07:04:19.375Z,4.60
2022-09-24T07:07:18.440Z,4.60
2022-09-24T07:09:45.363Z,4.50
2022-09-24T07:12:12.500Z,4.43
2022-09-24T07:14:39.430Z,4.57
2022-09-24T07:17:06.394Z,4.03
2022-09-24T07:19:34.942Z,3.43
2022-09-24T07:22:01.907Z,5.00
2022-09-24T07:24:28.828Z,4.37
2022-09-24T07:26:56.360Z,4.47
2022-09-24T07:29:23.427Z,4.60
2022-09-24T07:31:50.710Z,4.90
2022-09-24T07:34:17.717Z,4.80
2022-09-24T07:36:44.660Z,5.03
2022-09-24T07:39:11.940Z,5.23
2022-09-24T07:41:42.452Z,5.03
2022-09-24T07:44:10.021Z,4.60
2022-09-24T07:46:37.322Z,4.60
2022-09-24T07:49:04.527Z,4.63
2022-09-24T07:51:31.788Z,4.60
2022-09-24T07:53:59.089Z,5.20
2022-09-24T07:56:26.165Z,4.77
2022-09-24T07:58:53.861Z,5.47
2022-09-24T08:01:21.159Z,5.00
2022-09-24T08:03:48.366Z,4.87
2022-09-24T08:06:15.399Z,4.93
2022-09-24T08:08:43.392Z,4.30
2022-09-24T08:11:13.389Z,5.20
2022-09-24T08:13:40.461Z,4.87
2022-09-24T08:16:07.508Z,4.93
2022-09-24T08:18:34.866Z,5.17
2022-09-24T08:21:11.845Z,5.00
2022-09-24T08:23:40.122Z,4.67
2022-09-24T08:26:07.310Z,5.10
2022-09-24T08:28:35.098Z,5.20
2022-09-24T08:31:09.105Z,4.97
2022-09-24T08:33:37.809Z,5.00
2022-09-24T08:36:09.013Z,4.87
2022-09-24T08:38:36.730Z,5.47
2022-09-24T08:41:56.956Z,4.33
2022-09-24T08:45:03.524Z,3.90
2022-09-24T08:48:09.047Z,3.93
2022-09-24T08:50:39.512Z,4.80
2022-09-24T08:53:31.469Z,5.37
2022-09-24T08:56:01.891Z,4.80
2022-09-24T08:59:00.464Z,4.13
2022-09-24T09:02:13.426Z,4.30
2022-09-24T09:04:59.768Z,4.20
2022-09-24T09:07:40.299Z,3.93
2022-09-24T09:10:27.815Z,4.20
2022-09-24T09:13:07.238Z,4.47
2022-09-24T09:15:42.357Z,3.87
2022-09-24T09:18:32.747Z,3.87
2022-09-24T09:21:27.775Z,4.70
2022-09-24T09:23:57.969Z,4.40
2022-09-24T09:26:27.207Z,5.03
2022-09-24T09:29:01.413Z,4.10
2022-09-24T09:31:56.363Z,4.23
2022-09-24T09:34:43.093Z,4.17
2022-09-24T09:37:48.137Z,4.47
2022-09-24T09:40:29.088Z,4.03
2022-09-24T09:43:14.224Z,3.83
2022-09-24T09:46:01.749Z,4.30
2022-09-24T09:48:39.775Z,4.50
2022-09-24T09:51:16.641Z,4.17
2022-09-24T09:54:00.158Z,4.93
2022-09-24T09:56:36.886Z,4.97
2022-09-24T09:59:12.947Z,4.30
2022-09-24T10:01:46.098Z,3.80
2022-09-24T10:04:35.912Z,4.47
2022-09-24T10:07:31.497Z,3.83
2022-09-24T10:10:24.217Z,4.77
2022-09-24T10:13:12.445Z,3.80
2022-09-24T10:16:03.682Z,3.83
2022-09-24T10:18:34.722Z,4.15
2022-09-24T10:21:09.023Z,4.00
2022-09-24T10:23:47.277Z,4.13
2022-09-24T10:26:15.185Z,4.33
2022-09-24T10:29:11.096Z,3.83
2022-09-24T10:31:42.038Z,4.07
2022-09-24T10:34:28.939Z,3.22
2022-09-24T10:37:04.246Z,3.90
2022-09-24T10:39:34.264Z,4.43
2022-09-24T10:42:01.373Z,3.80
2022-09-24T10:44:37.412Z,4.33
2022-09-24T10:47:25.783Z,4.13
2022-09-24T10:50:35.451Z,3.50
2022-09-24T10:53:12.035Z,4.13
2022-09-24T10:56:34.321Z,3.95
2022-09-24T10:59:40.004Z,3.78
2022-09-24T11:03:09.603Z,3.85
2022-09-24T11:05:45.276Z,4.50
2022-09-24T11:08:46.671Z,3.95
2022-09-24T11:11:42.009Z,3.75
2022-09-24T11:14:45.021Z,3.70
2022-09-24T11:17:49.701Z,3.45
2022-09-24T11:20:50.302Z,3.25
2022-09-24T11:24:27.836Z,3.50
2022-09-24T11:27:45.001Z,3.75
2022-09-24T11:30:21.711Z,3.50
2022-09-24T11:33:26.434Z,3.08
2022-09-24T11:36:28.785Z,3.65
2022-09-24T11:39:43.490Z,3.70
2022-09-24T11:43:07.511Z,3.50
2022-09-24T11:45:59.166Z,3.00
2022-09-24T11:48:51.642Z,3.65
2022-09-24T11:52:31.568Z,3.90
2022-09-24T11:55:40.123Z,3.35
2022-09-24T11:58:27.022Z,3.90
2022-09-24T12:01:03.515Z,3.08
2022-09-24T12:04:24.047Z,3.10
2022-09-24T12:06:59.993Z,3.38
2022-09-24T12:10:17.115Z,2.67
2022-09-24T12:12:48.788Z,3.00
2022-09-24T12:15:22.306Z,3.33
2022-09-24T12:18:02.694Z,3.33
2022-09-24T12:20:32.302Z,3.17
2022-09-24T12:23:15.343Z,3.08
2022-09-24T12:25:46.968Z,3.08
2022-09-24T12:28:39.297Z,2.92
2022-09-24T12:31:55.068Z,2.85
2022-09-24T12:34:57.932Z,2.70
2022-09-24T12:37:38.565Z,3.08
2022-09-24T12:40:50.865Z,3.40
2022-09-24T12:44:17.149Z,2.60
2022-09-24T12:46:57.277Z,3.00
2022-09-24T12:49:27.209Z,3.30
2022-09-24T12:52:01.544Z,3.25
2022-09-24T12:54:38.378Z,3.05
2022-09-24T12:57:26.296Z,3.72
2022-09-24T13:00:01.156Z,3.47
2022-09-24T13:02:53.894Z,3.40
2022-09-24T13:05:27.075Z,3.30
2022-09-24T13:08:19.897Z,3.40
2022-09-24T13:11:06.442Z,3.10
2022-09-24T13:13:43.370Z,3.30
2022-09-24T13:16:21.195Z,3.22
2022-09-24T13:18:56.422Z,3.00
2022-09-24T13:21:27.841Z,3.50
2022-09-24T13:23:56.497Z,4.20
2022-09-24T13:26:33.962Z,3.22
2022-09-24T13:29:05.657Z,3.67
2022-09-24T13:31:49.307Z,3.28
2022-09-24T13:34:32.241Z,3.58
2022-09-24T13:37:34.720Z,2.90
2022-09-24T13:40:16.731Z,3.10
2022-09-24T13:43:16.165Z,3.58
2022-09-24T13:45:45.266Z,3.15
2022-09-24T13:49:03.620Z,3.00
2022-09-24T13:51:36.562Z,2.83
2022-09-24T13:54:39.759Z,3.15
2022-09-24T13:57:19.797Z,2.60
2022-09-24T13:59:46.757Z,2.45
2022-09-24T14:02:28.243Z,2.90
2022-09-24T14:05:00.812Z,2.90
2022-09-24T14:07:28.733Z,2.40
2022-09-24T14:10:14.564Z,2.63
2022-09-24T14:12:41.733Z,3.17
2022-09-24T14:15:18.394Z,2.60
2022-09-24T14:17:59.478Z,2.88
2022-09-24T14:20:34.377Z,3.25
2022-09-24T14:23:04.402Z,2.88
2022-09-24T14:25:36.546Z,2.90
2022-09-24T14:28:05.331Z,3.00
2022-09-24T14:30:37.208Z,3.10
2022-09-24T14:33:13.633Z,3.03
2022-09-24T14:35:45.075Z,2.50
2022-09-24T14:38:29.639Z,3.05
2022-09-24T14:41:06.659Z,2.85
2022-09-24T14:43:47.327Z,3.25
2022-09-24T14:46:27.393Z,3.30
2022-09-24T14:49:27.795Z,2.65
2022-09-24T14:52:05.115Z,3.03
2022-09-24T14:54:40.271Z,2.60
2022-09-24T14:57:19.355Z,3.08
2022-09-24T14:59:47.431Z,3.65
2022-09-24T15:02:35.041Z,3.58
2022-09-24T15:05:07.141Z,3.90
2022-09-24T15:07:35.429Z,3.95
2022-09-24T15:10:06.254Z,4.40
2022-09-24T15:12:37.975Z,3.72
2022-09-24T15:15:16.858Z,4.22
2022-09-24T15:17:47.106Z,4.30
2022-09-24T15:20:14.786Z,4.13
2022-09-24T15:22:41.857Z,4.32
2022-09-24T15:25:10.369Z,3.70
2022-09-24T15:27:39.391Z,3.77
2022-09-24T15:30:12.704Z,4.15
2022-09-24T15:32:39.684Z,4.20
2022-09-24T15:35:09.276Z,3.65
2022-09-24T15:37:39.407Z,4.00
2022-09-24T15:40:30.668Z,4.03
2022-09-24T15:42:57.749Z,3.58
2022-09-24T15:45:25.765Z,3.70
2022-09-24T15:47:53.911Z,3.60
2022-09-24T15:50:23.495Z,4.28
2022-09-24T15:52:56.562Z,4.00
2022-09-24T15:55:24.081Z,4.20
2022-09-24T15:57:51.197Z,4.27
2022-09-24T16:00:22.568Z,4.43
2022-09-24T16:02:54.878Z,4.55
2022-09-24T16:05:26.461Z,4.93
2022-09-24T16:07:53.574Z,4.67
2022-09-24T16:10:20.663Z,4.95
2022-09-24T16:12:47.654Z,4.70
2022-09-24T16:15:16.751Z,5.25
2022-09-24T16:17:44.090Z,6.10
2022-09-24T16:20:11.334Z,6.80
2022-09-24T16:22:38.500Z,7.10
2022-09-24T16:25:06.506Z,6.87
2022-09-24T16:27:35.226Z,6.93
2022-09-24T16:30:04.067Z,6.80
2022-09-24T16:32:31.014Z,6.47
2022-09-24T16:34:57.966Z,6.50
2022-09-24T16:37:25.600Z,7.15
2022-09-24T16:39:52.808Z,7.33
2022-09-24T16:42:19.784Z,7.80
2022-09-24T16:44:46.835Z,8.77
2022-09-24T16:47:16.347Z,12.27
2022-09-24T16:49:43.374Z,10.47
2022-09-24T16:52:10.665Z,13.03
2022-09-24T16:54:37.661Z,14.20
2022-09-24T16:57:06.063Z,13.40
2022-09-24T16:59:33.693Z,13.33
2022-09-24T17:02:01.148Z,10.70
2022-09-24T17:04:28.372Z,10.30
2022-09-24T17:06:59.129Z,11.17
2022-09-24T17:09:44.712Z,11.33
2022-09-24T17:12:11.804Z,10.87
2022-09-24T17:14:39.037Z,10.07
2022-09-24T17:17:06.733Z,10.50
2022-09-24T17:19:33.750Z,10.47
2022-09-24T17:22:00.992Z,10.07
2022-09-24T17:24:28.104Z,13.40
2022-09-24T17:26:56.694Z,16.43
2022-09-24T17:29:30.319Z,9.73
2022-09-24T17:31:58.392Z,11.40
2022-09-24T17:34:25.451Z,11.53
2022-09-24T17:36:52.400Z,9.17
2022-09-24T17:39:19.440Z,8.73
2022-09-24T17:41:46.452Z,9.57
2022-09-24T17:44:13.540Z,9.33
2022-09-24T17:46:40.892Z,9.47
2022-09-24T17:49:08.027Z,8.60
2022-09-24T17:51:36.688Z,8.50
2022-09-24T17:54:11.614Z,7.57
2022-09-24T17:56:38.742Z,11.90
2022-09-24T17:59:09.000Z,10.43
2022-09-24T18:01:38.748Z,7.77
2022-09-24T18:04:11.258Z,8.37
2022-09-24T18:06:40.730Z,8.70
2022-09-24T18:09:10.424Z,8.40
2022-09-24T18:11:51.595Z,8.80
2022-09-24T18:14:22.739Z,8.47
2022-09-24T18:16:50.379Z,9.50
2022-09-24T18:19:18.071Z,8.30
2022-09-24T18:21:46.488Z,7.10
2022-09-24T18:24:14.458Z,8.90
2022-09-24T18:26:41.609Z,8.40
2022-09-24T18:29:15.543Z,8.53
2022-09-24T18:31:43.859Z,8.37
2022-09-24T18:34:15.446Z,9.10
2022-09-24T18:36:45.083Z,8.53
2022-09-24T18:39:17.693Z,8.20
2022-09-24T18:41:47.227Z,8.70
2022-09-24T18:44:14.210Z,8.53
2022-09-24T18:46:42.034Z,8.57
2022-09-24T18:49:11.949Z,8.10
2022-09-24T18:51:39.092Z,9.63
2022-09-24T18:54:12.397Z,11.60
2022-09-24T18:56:40.107Z,10.50
2022-09-24T18:59:19.411Z,11.20
2022-09-24T19:01:48.401Z,10.07
2022-09-24T19:04:16.047Z,10.03
2022-09-24T19:06:46.054Z,10.33
2022-09-24T19:09:17.201Z,10.50
2022-09-24T19:11:45.493Z,10.80
2022-09-24T19:14:14.901Z,9.23
2022-09-24T19:16:41.872Z,11.30
2022-09-24T19:19:11.282Z,14.33
2022-09-24T19:21:40.501Z,14.13
2022-09-24T19:24:07.940Z,20.37
2022-09-24T19:26:36.709Z,17.27
2022-09-24T19:29:04.994Z,20.83
2022-09-24T19:31:42.424Z,12.97
2022-09-24T19:34:13.031Z,16.87
2022-09-24T19:36:45.054Z,11.83
2022-09-24T19:39:17.412Z,11.70
2022-09-24T19:41:44.658Z,12.47
2022-09-24T19:44:12.205Z,8.73
2022-09-24T19:46:40.216Z,8.87
2022-09-24T19:49:07.434Z,8.00
2022-09-24T19:51:35.892Z,8.67
2022-09-24T19:54:08.383Z,8.00
2022-09-24T19:56:36.559Z,8.87
2022-09-24T19:59:05.909Z,8.67
2022-09-24T20:01:33.708Z,10.43
2022-09-24T20:04:06.357Z,9.47
2022-09-24T20:06:35.905Z,9.83
2022-09-24T20:09:03.440Z,10.07
2022-09-24T20:11:32.628Z,9.43
2022-09-24T20:14:01.225Z,9.77
2022-09-24T20:16:33.212Z,8.47
2022-09-24T20:19:02.231Z,8.93
2022-09-24T20:21:35.036Z,8.97
2022-09-24T20:24:03.963Z,8.17
2022-09-24T20:26:50.147Z,8.50
2022-09-24T20:29:19.694Z,9.37
2022-09-24T20:31:53.207Z,8.50
2022-09-24T20:34:31.628Z,8.10
2022-09-24T20:36:59.274Z,8.07
2022-09-24T20:39:26.446Z,8.10
2022-09-24T20:41:53.621Z,9.00
2022-09-24T20:44:22.051Z,8.23
2022-09-24T20:46:49.192Z,8.87
2022-09-24T20:49:23.076Z,9.53
2022-09-24T20:51:57.357Z,8.07
2022-09-24T20:54:26.717Z,8.70
2022-09-24T20:56:53.773Z,9.33
2022-09-24T20:59:20.769Z,7.13
2022-09-24T21:01:49.415Z,8.63
2022-09-24T21:04:17.272Z,7.93
2022-09-24T21:06:44.223Z,8.80
2022-09-24T21:09:11.550Z,8.10
2022-09-24T21:11:38.659Z,8.00
2022-09-24T21:14:09.822Z,9.53
2022-09-24T21:16:37.305Z,8.20
2022-09-24T21:19:07.756Z,7.23
2022-09-24T21:21:38.544Z,8.93
2022-09-24T21:24:10.116Z,7.47
2022-09-24T21:26:39.702Z,7.40
2022-09-24T21:29:17.129Z,7.40
2022-09-24T21:31:47.302Z,7.00
2022-09-24T21:34:18.041Z,8.03
2022-09-24T21:36:45.989Z,8.03
2022-09-24T21:39:24.054Z,7.03
2022-09-24T21:41:52.920Z,7.53
2022-09-24T21:44:21.413Z,7.33
2022-09-24T21:46:52.444Z,7.37
2022-09-24T21:49:20.439Z,6.80
2022-09-24T21:51:47.617Z,6.63
2022-09-24T21:54:18.134Z,6.70
2022-09-24T21:56:46.509Z,8.47
2022-09-24T21:59:33.738Z,7.07
2022-09-24T22:02:02.367Z,6.93
2022-09-24T22:04:31.801Z,8.00
2022-09-24T22:06:59.341Z,5.87
2022-09-24T22:09:26.777Z,6.73
2022-09-24T22:11:59.072Z,6.90
2022-09-24T22:14:26.607Z,6.20
2022-09-24T22:16:54.118Z,7.27
2022-09-24T22:19:21.191Z,6.87
2022-09-24T22:21:48.250Z,8.40
2022-09-24T22:24:15.961Z,6.00
2022-09-24T22:26:43.010Z,6.83
2022-09-24T22:29:10.022Z,6.93
2022-09-24T22:31:37.034Z,6.67
2022-09-24T22:34:22.791Z,5.80
2022-09-24T22:36:50.017Z,7.53
2022-09-24T22:39:17.043Z,6.20
2022-09-24T22:41:44.041Z,6.37
2022-09-24T22:44:12.176Z,7.83
2022-09-24T22:46:41.261Z,6.40
2022-09-24T22:49:10.239Z,6.50
2022-09-24T22:51:38.409Z,7.20
2022-09-24T22:54:05.971Z,8.97
2022-09-24T22:56:34.831Z,8.57
2022-09-24T22:59:02.242Z,7.83
2022-09-24T23:01:38.567Z,6.97
2022-09-24T23:04:06.144Z,6.73
2022-09-24T23:06:34.608Z,6.57
2022-09-24T23:09:01.940Z,9.00
2022-09-24T23:11:33.822Z,6.87
2022-09-24T23:14:10.984Z,7.63
2022-09-24T23:16:38.498Z,9.50
2022-09-24T23:19:13.333Z,9.03
2022-09-24T23:21:40.419Z,9.00
2022-09-24T23:24:15.158Z,8.33
2022-09-24T23:26:42.478Z,6.80
2022-09-24T23:29:11.071Z,7.43
2022-09-24T23:31:38.881Z,8.20
2022-09-24T23:34:07.530Z,5.57
2022-09-24T23:36:36.086Z,6.50
2022-09-24T23:39:04.878Z,7.80
2022-09-24T23:41:32.151Z,6.97
2022-09-24T23:43:59.806Z,8.33
2022-09-24T23:46:27.527Z,6.40
2022-09-24T23:48:55.581Z,7.57
2022-09-24T23:51:23.223Z,6.10
2022-09-24T23:53:50.465Z,5.93
2022-09-24T23:56:18.041Z,7.60
2022-09-24T23:58:45.979Z,7.13
